Grass Patch Airport


Codes: 00FA/
Name: Grass Patch Airport
City: Bushnell
Country: United States
Elevation: 53 ft.

Photos at Grass Patch Airport


   Photos courtesy of SpottingLog. You can add your own sightings and photos by signing up for a free trial today.



No photos found.

Weather at Grass Patch Airport


Time (UTC)DescriptionTempratureWindCloud coverageVisibilityPressureHumidity
21-Jun-2024 12:00Broken Clouds23°C7 mph, NE83%10000m1019hPa95%
21-Jun-2024 15:00Broken Clouds25°C9 mph, NE81%10000m1019hPa84%
21-Jun-2024 18:00Light Rain29°C4 mph, SE81%10000m1018hPa68%
21-Jun-2024 21:00Light Rain28°C4 mph, NW94%10000m1015hPa72%
22-Jun-2024 00:00Moderate Rain26°C4 mph, NW91%10000m1016hPa84%
22-Jun-2024 03:00Light Rain25°C4 mph, NE84%10000m1017hPa87%
22-Jun-2024 06:00Light Rain24°C4 mph, SE65%10000m1017hPa91%
22-Jun-2024 09:00Few Clouds24°C4 mph, SE14%10000m1017hPa92%
22-Jun-2024 12:00Few Clouds26°C4 mph, S11%10000m1017hPa84%
22-Jun-2024 15:00Clear Sky33°C4 mph, S4%10000m1018hPa53%
22-Jun-2024 18:00Clear Sky36°C7 mph, SW8%10000m1015hPa39%
22-Jun-2024 21:00Broken Clouds34°C9 mph, SW61%10000m1014hPa49%
23-Jun-2024 00:00Light Rain28°C2 mph, SW37%10000m1015hPa76%
23-Jun-2024 03:00Light Rain24°C7 mph, S4%10000m1016hPa93%
23-Jun-2024 06:00Light Rain24°C4 mph, SW50%10000m1016hPa95%
23-Jun-2024 09:00Light Rain24°C4 mph, SW100%10000m1016hPa95%
23-Jun-2024 12:00Overcast Clouds25°C4 mph, SW100%10000m1016hPa89%
23-Jun-2024 15:00Light Rain31°C4 mph, SW74%10000m1016hPa60%
23-Jun-2024 18:00Light Rain35°C7 mph, SW58%10000m1015hPa45%
23-Jun-2024 21:00Light Rain33°C4 mph, SW73%10000m1013hPa51%
24-Jun-2024 00:00Light Rain27°C7 mph, W61%10000m1013hPa79%
24-Jun-2024 03:00Moderate Rain25°C2 mph, SW56%10000m1015hPa89%
24-Jun-2024 06:00Light Rain24°C2 mph, SW71%10000m1014hPa91%
24-Jun-2024 09:00Scattered Clouds24°C2 mph, W39%10000m1014hPa90%
24-Jun-2024 12:00Light Rain26°C4 mph, SW31%10000m1015hPa88%
24-Jun-2024 15:00Few Clouds32°C7 mph, W16%10000m1016hPa57%
24-Jun-2024 18:00Scattered Clouds34°C7 mph, SW38%10000m1014hPa49%
24-Jun-2024 21:00Clear Sky34°C9 mph, W0%10000m1013hPa45%
25-Jun-2024 00:00Light Rain29°C7 mph, W0%10000m1013hPa69%
25-Jun-2024 03:00Moderate Rain24°C7 mph, SE8%10000m1016hPa92%
25-Jun-2024 06:00Clear Sky24°C4 mph, SW7%10000m1015hPa93%
25-Jun-2024 09:00Clear Sky24°C4 mph, W0%10000m1014hPa93%
25-Jun-2024 12:00Clear Sky26°C4 mph, W2%10000m1015hPa84%
25-Jun-2024 15:00Overcast Clouds32°C7 mph, W88%10000m1015hPa55%
25-Jun-2024 18:00Broken Clouds35°C9 mph, W84%10000m1015hPa44%
25-Jun-2024 21:00Few Clouds33°C11 mph, W12%10000m1013hPa49%
26-Jun-2024 00:00Clear Sky29°C9 mph, W7%10000m1014hPa69%
26-Jun-2024 03:00Light Rain24°C4 mph, W61%10000m1016hPa91%
26-Jun-2024 06:00Moderate Rain24°C2 mph, W81%10000m1015hPa95%
26-Jun-2024 09:00Overcast Clouds24°C2 mph, SW88%10000m1014hPa94%